createdAt,value
2019-01-11T00:01:27.432Z,94422.76
2019-01-11T00:03:54.804Z,94415.75
2019-01-11T00:06:22.196Z,94418.63
2019-01-11T00:08:49.558Z,94420.55
2019-01-11T00:11:16.955Z,94419.01
2019-01-11T00:13:44.333Z,94416.44
2019-01-11T00:16:11.741Z,94415.41
2019-01-11T00:18:39.106Z,94409.47
2019-01-11T00:21:07.138Z,94409.47
2019-01-11T00:23:34.505Z,94410.50
2019-01-11T00:26:01.875Z,94408.48
2019-01-11T00:28:29.260Z,94401.20
2019-01-11T00:30:56.745Z,94407.77
2019-01-11T00:33:24.221Z,94410.16
2019-01-11T00:35:51.569Z,94413.52
2019-01-11T00:38:18.954Z,94414.47
2019-01-11T00:40:46.331Z,94417.69
2019-01-11T00:43:15.116Z,94423.23
2019-01-11T00:45:42.794Z,94428.20
2019-01-11T00:48:10.172Z,94433.98
2019-01-11T00:50:37.694Z,94436.15
2019-01-11T00:53:05.071Z,94430.73
2019-01-11T00:55:32.624Z,94429.20
2019-01-11T00:57:59.971Z,94435.33
2019-01-11T01:00:27.642Z,94428.86
2019-01-11T01:02:55.010Z,94433.80
2019-01-11T01:05:22.366Z,94434.27
2019-01-11T01:07:49.974Z,94435.55
2019-01-11T01:10:19.163Z,94440.19
2019-01-11T01:12:46.577Z,94438.22
2019-01-11T01:15:14.122Z,94434.95
2019-01-11T01:17:41.533Z,94437.39
2019-01-11T01:20:09.821Z,94434.58
2019-01-11T01:22:37.191Z,94435.36
2019-01-11T01:25:05.067Z,94444.82
2019-01-11T01:27:32.443Z,94436.11
2019-01-11T01:29:59.863Z,94445.64
2019-01-11T01:32:27.214Z,94447.58
2019-01-11T01:34:54.598Z,94442.15
2019-01-11T01:37:21.959Z,94441.51
2019-01-11T01:39:49.313Z,94449.73
2019-01-11T01:42:16.709Z,94455.68
2019-01-11T01:44:44.063Z,94447.42
2019-01-11T01:47:11.421Z,94450.20
2019-01-11T01:49:38.800Z,94449.03
2019-01-11T01:52:06.479Z,94457.95
2019-01-11T01:54:33.884Z,94459.88
2019-01-11T01:57:01.231Z,94455.45
2019-01-11T01:59:28.606Z,94449.80
2019-01-11T02:01:55.968Z,94446.83
2019-01-11T02:04:23.371Z,94443.03
2019-01-11T02:06:51.018Z,94440.41
2019-01-11T02:09:18.369Z,94444.59
2019-01-11T02:11:45.809Z,94448.62
2019-01-11T02:14:13.236Z,94447.10
2019-01-11T02:16:40.648Z,94446.39
2019-01-11T02:19:08.017Z,94448.91
2019-01-11T02:21:35.450Z,94448.59
2019-01-11T02:24:02.897Z,94439.92
2019-01-11T02:26:30.302Z,94443.73
2019-01-11T02:28:57.639Z,94444.05
2019-01-11T02:31:25.002Z,94443.41
2019-01-11T02:33:52.861Z,94446.16
2019-01-11T02:36:20.222Z,94443.95
2019-01-11T02:38:47.614Z,94443.67
2019-01-11T02:41:14.973Z,94445.81
2019-01-11T02:43:42.365Z,94442.61
2019-01-11T02:46:09.729Z,94448.11
2019-01-11T02:48:37.112Z,94447.05
2019-01-11T02:51:04.507Z,94437.47
2019-01-11T02:53:31.866Z,94438.42
2019-01-11T02:55:59.268Z,94440.77
2019-01-11T02:58:26.665Z,94445.05
2019-01-11T03:00:54.001Z,94433.28
2019-01-11T03:03:21.371Z,94439.48
2019-01-11T03:05:48.738Z,94433.06
2019-01-11T03:08:16.197Z,94433.61
2019-01-11T03:10:43.732Z,94436.27
2019-01-11T03:13:11.086Z,94428.02
2019-01-11T03:15:38.461Z,94430.52
2019-01-11T03:18:05.855Z,94424.41
2019-01-11T03:20:33.194Z,94423.56
2019-01-11T03:23:00.540Z,94428.92
2019-01-11T03:25:27.975Z,94430.25
2019-01-11T03:27:55.344Z,94434.12
2019-01-11T03:30:22.764Z,94440.69
2019-01-11T03:32:50.227Z,94439.25
2019-01-11T03:35:21.936Z,94439.05
2019-01-11T03:37:49.764Z,94438.95
2019-01-11T03:40:18.545Z,94435.91
2019-01-11T03:42:46.024Z,94440.95
2019-01-11T03:45:14.186Z,94437.52
2019-01-11T03:47:41.631Z,94445.53
2019-01-11T03:50:09.286Z,94445.37
2019-01-11T03:52:36.756Z,94445.63
2019-01-11T03:55:05.344Z,94441.59
2019-01-11T03:57:32.688Z,94446.56
2019-01-11T04:00:00.110Z,94441.45
2019-01-11T04:02:27.771Z,94436.47
2019-01-11T04:04:55.138Z,94440.69
2019-01-11T04:07:22.790Z,94448.92
2019-01-11T04:09:50.130Z,94447.13
2019-01-11T04:12:17.480Z,94443.47
2019-01-11T04:14:44.858Z,94450.05
2019-01-11T04:17:12.476Z,94447.05
2019-01-11T04:19:39.819Z,94454.27
2019-01-11T04:22:25.952Z,94452.08
2019-01-11T04:25:03.044Z,94455.23
2019-01-11T04:27:30.418Z,94455.61
2019-01-11T04:29:57.801Z,94460.32
2019-01-11T04:32:25.175Z,94464.61
2019-01-11T04:34:52.517Z,94460.54
2019-01-11T04:37:19.884Z,94460.85
2019-01-11T04:39:47.316Z,94456.47
2019-01-11T04:42:14.784Z,94457.06
2019-01-11T04:44:42.463Z,94461.08
2019-01-11T04:47:09.808Z,94457.73
2019-01-11T04:49:37.690Z,94460.22
2019-01-11T04:52:05.093Z,94456.38
2019-01-11T04:54:32.460Z,94451.78
2019-01-11T04:56:59.915Z,94454.80
2019-01-11T04:59:27.273Z,94457.35
2019-01-11T05:01:54.700Z,94451.61
2019-01-11T05:04:22.108Z,94454.89
2019-01-11T05:06:49.460Z,94451.98
2019-01-11T05:09:16.833Z,94453.27
2019-01-11T05:11:44.180Z,94445.21
2019-01-11T05:14:11.596Z,94444.22
2019-01-11T05:16:39.602Z,94448.98
2019-01-11T05:19:07.263Z,94453.94
2019-01-11T05:21:34.931Z,94454.19
2019-01-11T05:24:02.271Z,94451.63
2019-01-11T05:26:29.618Z,94456.78
2019-01-11T05:28:56.996Z,94455.47
2019-01-11T05:31:24.361Z,94450.88
2019-01-11T05:33:51.865Z,94456.38
2019-01-11T05:36:19.383Z,94450.96
2019-01-11T05:38:46.836Z,94456.04
2019-01-11T05:41:14.218Z,94460.80
2019-01-11T05:43:41.603Z,94454.92
2019-01-11T05:46:08.969Z,94456.09
2019-01-11T05:48:36.471Z,94457.66
2019-01-11T05:51:03.825Z,94453.31
2019-01-11T05:53:31.248Z,94462.72
2019-01-11T05:56:02.861Z,94458.35
2019-01-11T05:58:31.730Z,94462.20
2019-01-11T06:00:59.197Z,94465.22
2019-01-11T06:03:26.600Z,94456.70
2019-01-11T06:05:53.936Z,94461.83
2019-01-11T06:08:21.328Z,94455.05
2019-01-11T06:10:48.685Z,94462.58
2019-01-11T06:13:16.097Z,94469.28
2019-01-11T06:15:43.463Z,94472.30
2019-01-11T06:18:10.865Z,94469.94
2019-01-11T06:20:38.203Z,94472.75
2019-01-11T06:23:05.609Z,94462.33
2019-01-11T06:25:33.252Z,94466.42
2019-01-11T06:28:00.982Z,94467.00
2019-01-11T06:30:28.317Z,94469.20
2019-01-11T06:32:55.691Z,94481.27
2019-01-11T06:35:23.078Z,94479.28
2019-01-11T06:37:50.938Z,94476.34
2019-01-11T06:40:18.279Z,94475.44
2019-01-11T06:42:45.963Z,94475.44
2019-01-11T06:45:13.350Z,94476.19
2019-01-11T06:47:40.729Z,94480.91
2019-01-11T06:50:09.839Z,94486.23
2019-01-11T06:52:37.198Z,94495.30
2019-01-11T06:55:04.947Z,94488.97
2019-01-11T06:57:32.399Z,94493.22
2019-01-11T06:59:59.754Z,94486.23
2019-01-11T07:02:27.197Z,94487.72
2019-01-11T07:04:54.531Z,94487.15
2019-01-11T07:07:21.895Z,94486.44
2019-01-11T07:09:49.254Z,94489.54
2019-01-11T07:12:16.614Z,94498.50
2019-01-11T07:14:44.122Z,94497.43
2019-01-11T07:17:11.466Z,94500.73
2019-01-11T07:19:38.939Z,94498.15
2019-01-11T07:22:06.468Z,94496.66
2019-01-11T07:24:34.391Z,94496.13
2019-01-11T07:27:01.750Z,94488.45
2019-01-11T07:29:29.110Z,94493.02
2019-01-11T07:31:59.738Z,94491.81
2019-01-11T07:34:27.134Z,94486.52
2019-01-11T07:36:55.853Z,94488.00
2019-01-11T07:39:27.687Z,94487.33
2019-01-11T07:41:55.148Z,94482.95
2019-01-11T07:44:22.762Z,94486.80
2019-01-11T07:46:50.110Z,94493.27
2019-01-11T07:49:23.015Z,94496.49
2019-01-11T07:51:46.767Z,94496.08
2019-01-11T07:54:14.147Z,94502.95
2019-01-11T07:56:41.754Z,94500.66
2019-01-11T07:59:09.170Z,94495.54
2019-01-11T08:01:36.633Z,94499.94
2019-01-11T08:04:04.676Z,94493.72
2019-01-11T08:06:32.106Z,94492.60
2019-01-11T08:08:59.505Z,94499.59
2019-01-11T08:11:26.960Z,94496.83
2019-01-11T08:13:54.396Z,94496.28
2019-01-11T08:16:21.758Z,94496.09
2019-01-11T08:18:49.188Z,94494.80
2019-01-11T08:21:16.645Z,94496.45
2019-01-11T08:23:44.026Z,94501.59
2019-01-11T08:26:11.389Z,94499.09
2019-01-11T08:28:38.830Z,94504.69
2019-01-11T08:31:06.255Z,94510.27
2019-01-11T08:33:33.661Z,94503.55
2019-01-11T08:36:01.435Z,94493.45
2019-01-11T08:38:28.902Z,94500.07
2019-01-11T08:40:56.287Z,94498.63
2019-01-11T08:43:23.638Z,94500.97
2019-01-11T08:45:51.019Z,94502.17
2019-01-11T08:48:18.387Z,94500.95
2019-01-11T08:50:46.470Z,94504.97
2019-01-11T08:53:13.818Z,94498.77
2019-01-11T08:55:41.194Z,94505.50
2019-01-11T08:58:08.574Z,94507.15
2019-01-11T09:00:35.929Z,94510.61
2019-01-11T09:03:03.311Z,94511.67
2019-01-11T09:05:30.687Z,94512.56
2019-01-11T09:07:58.042Z,94525.75
2019-01-11T09:10:25.424Z,94512.09
2019-01-11T09:12:52.762Z,94511.36
2019-01-11T09:15:20.275Z,94505.97
2019-01-11T09:18:16.311Z,94511.53
2019-01-11T09:20:43.768Z,94512.30
2019-01-11T09:23:11.310Z,94514.09
2019-01-11T09:25:38.691Z,94515.86
2019-01-11T09:28:06.061Z,94511.13
2019-01-11T09:30:33.675Z,94510.97
2019-01-11T09:33:01.022Z,94515.23
2019-01-11T09:35:28.366Z,94517.80
2019-01-11T09:37:55.835Z,94529.00
2019-01-11T09:40:23.194Z,94526.25
2019-01-11T09:42:50.577Z,94520.48
2019-01-11T09:45:18.011Z,94520.84
2019-01-11T09:47:45.694Z,94524.92
2019-01-11T09:50:13.160Z,94519.66
2019-01-11T09:52:40.550Z,94523.38
2019-01-11T09:55:07.994Z,94530.05
2019-01-11T09:57:35.370Z,94523.90
2019-01-11T10:00:03.766Z,94522.14
2019-01-11T10:02:49.119Z,94530.27
2019-01-11T10:05:16.475Z,94524.41
2019-01-11T10:07:43.859Z,94519.48
2019-01-11T10:10:12.534Z,94522.84
2019-01-11T10:12:39.899Z,94520.51
2019-01-11T10:15:08.226Z,94518.71
2019-01-11T10:17:35.590Z,94516.61
2019-01-11T10:20:03.977Z,94519.88
2019-01-11T10:22:31.338Z,94511.74
2019-01-11T10:24:58.730Z,94514.00
2019-01-11T10:27:26.195Z,94513.13
2019-01-11T10:29:53.639Z,94503.84
2019-01-11T10:32:21.011Z,94499.56
2019-01-11T10:34:48.351Z,94499.30
2019-01-11T10:37:15.766Z,94487.44
2019-01-11T10:39:43.127Z,94488.06
2019-01-11T10:42:10.490Z,94487.44
2019-01-11T10:44:37.878Z,94495.39
2019-01-11T10:47:05.262Z,94496.90
2019-01-11T10:49:32.712Z,94499.70
2019-01-11T10:52:00.171Z,94503.19
2019-01-11T10:54:47.017Z,94505.06
2019-01-11T10:57:14.387Z,94510.18
2019-01-11T10:59:41.758Z,94511.50
2019-01-11T11:02:09.155Z,94512.64
2019-01-11T11:04:36.643Z,94506.09
2019-01-11T11:07:04.115Z,94499.80
2019-01-11T11:09:31.494Z,94498.58
2019-01-11T11:11:58.846Z,94490.63
2019-01-11T11:14:26.216Z,94483.33
2019-01-11T11:16:53.558Z,94481.15
2019-01-11T11:19:20.944Z,94482.34
2019-01-11T11:21:48.368Z,94480.38
2019-01-11T11:24:15.940Z,94481.34
2019-01-11T11:26:43.336Z,94486.62
2019-01-11T11:29:11.115Z,94481.84
2019-01-11T11:31:38.479Z,94480.63
2019-01-11T11:34:05.849Z,94474.42
2019-01-11T11:36:33.310Z,94475.30
2019-01-11T11:39:00.776Z,94464.25
2019-01-11T11:41:28.146Z,94468.31
2019-01-11T11:43:55.502Z,94474.75
2019-01-11T11:46:22.898Z,94472.11
2019-01-11T11:48:50.267Z,94472.04
2019-01-11T11:51:17.941Z,94471.84
2019-01-11T11:53:45.371Z,94467.94
2019-01-11T11:56:12.719Z,94463.02
2019-01-11T11:58:40.122Z,94468.53
2019-01-11T12:01:07.786Z,94464.73
2019-01-11T12:03:35.141Z,94463.91
2019-01-11T12:06:02.531Z,94462.30
2019-01-11T12:08:29.898Z,94461.44
2019-01-11T12:10:57.522Z,94459.29
2019-01-11T12:13:24.911Z,94456.77
2019-01-11T12:15:52.290Z,94453.94
2019-01-11T12:18:19.684Z,94449.98
2019-01-11T12:20:47.081Z,94437.77
2019-01-11T12:23:14.495Z,94433.34
2019-01-11T12:25:41.922Z,94437.77
2019-01-11T12:28:09.307Z,94435.19
2019-01-11T12:30:36.675Z,94424.45
2019-01-11T12:33:04.084Z,94422.88
2019-01-11T12:35:31.482Z,94420.00
2019-01-11T12:37:58.878Z,94419.25
2019-01-11T12:40:26.273Z,94408.72
2019-01-11T12:42:53.658Z,94418.09
2019-01-11T12:45:21.133Z,94413.17
2019-01-11T12:47:48.524Z,94399.41
2019-01-11T12:50:17.670Z,94391.20
2019-01-11T12:52:45.043Z,94390.69
2019-01-11T12:55:12.404Z,94398.41
2019-01-11T12:57:39.798Z,94392.26
2019-01-11T13:00:08.422Z,94390.13
2019-01-11T13:02:35.861Z,94390.20
2019-01-11T13:05:04.388Z,94386.09
2019-01-11T13:07:31.818Z,94389.03
2019-01-11T13:09:59.312Z,94377.20
2019-01-11T13:12:26.682Z,94377.08
2019-01-11T13:14:54.063Z,94383.83
2019-01-11T13:17:21.462Z,94380.30
2019-01-11T13:19:48.845Z,94383.59
2019-01-11T13:22:16.185Z,94380.97
2019-01-11T13:24:43.630Z,94378.39
2019-01-11T13:27:11.087Z,94376.54
2019-01-11T13:29:41.190Z,94385.19
2019-01-11T13:32:08.599Z,94386.67
2019-01-11T13:34:35.988Z,94389.78
2019-01-11T13:37:03.577Z,94386.65
2019-01-11T13:39:30.942Z,94383.58
2019-01-11T13:41:58.350Z,94388.09
2019-01-11T13:44:25.847Z,94385.92
2019-01-11T13:46:53.213Z,94387.91
2019-01-11T13:49:20.622Z,94388.13
2019-01-11T13:51:48.083Z,94386.48
2019-01-11T13:54:15.551Z,94392.69
2019-01-11T13:56:43.217Z,94393.28
2019-01-11T13:59:10.656Z,94396.34
2019-01-11T14:01:38.074Z,94389.84
2019-01-11T14:04:05.539Z,94391.80
2019-01-11T14:06:33.223Z,94387.96
2019-01-11T14:09:00.592Z,94391.50
2019-01-11T14:11:27.986Z,94394.13
2019-01-11T14:13:55.382Z,94411.19
2019-01-11T14:16:22.733Z,94409.47
2019-01-11T14:18:50.348Z,94412.34
2019-01-11T14:21:17.902Z,94414.63
2019-01-11T14:23:45.347Z,94404.39
2019-01-11T14:26:12.783Z,94405.78
2019-01-11T14:28:40.170Z,94404.13
2019-01-11T14:31:07.544Z,94398.98
2019-01-11T14:33:34.930Z,94394.59
2019-01-11T14:36:02.429Z,94392.55
2019-01-11T14:38:29.782Z,94389.98
2019-01-11T14:40:57.154Z,94394.53
2019-01-11T14:43:24.530Z,94387.41
2019-01-11T14:45:51.987Z,94391.33
2019-01-11T14:48:19.390Z,94388.86
2019-01-11T14:50:46.758Z,94375.34
2019-01-11T14:53:14.142Z,94377.28
2019-01-11T14:55:41.610Z,94372.98
2019-01-11T14:58:09.106Z,94381.13
2019-01-11T15:00:36.586Z,94380.41
2019-01-11T15:03:03.948Z,94393.76
2019-01-11T15:05:31.329Z,94399.83
2019-01-11T15:07:58.726Z,94401.20
2019-01-11T15:10:26.550Z,94400.97
2019-01-11T15:12:53.938Z,94392.89
2019-01-11T15:15:21.387Z,94398.00
2019-01-11T15:17:49.014Z,94391.84
2019-01-11T15:20:17.269Z,94392.16
2019-01-11T15:22:44.784Z,94396.20
2019-01-11T15:25:12.287Z,94393.76
2019-01-11T15:27:39.709Z,94399.83
2019-01-11T15:30:08.945Z,94393.16
2019-01-11T15:32:36.329Z,94395.33
2019-01-11T15:35:04.232Z,94400.97
2019-01-11T15:37:31.682Z,94399.97
2019-01-11T15:39:59.145Z,94400.38
2019-01-11T15:42:26.547Z,94401.81
2019-01-11T15:44:53.939Z,94402.23
2019-01-11T15:47:21.384Z,94386.61
2019-01-11T15:49:48.812Z,94392.25
2019-01-11T15:52:16.177Z,94395.19
2019-01-11T15:54:43.587Z,94399.61
2019-01-11T15:57:11.052Z,94391.53
2019-01-11T15:59:57.004Z,94394.83
2019-01-11T16:02:24.427Z,94390.61
2019-01-11T16:04:55.215Z,94395.75
2019-01-11T16:07:22.648Z,94394.61
2019-01-11T16:09:59.458Z,94396.77
2019-01-11T16:12:41.498Z,94395.15
2019-01-11T16:15:12.371Z,94398.78
2019-01-11T16:17:39.751Z,94400.39
2019-01-11T16:20:08.104Z,94406.26
2019-01-11T16:22:39.582Z,94404.61
2019-01-11T16:25:05.024Z,94404.61
2019-01-11T16:27:32.478Z,94399.05
2019-01-11T16:29:59.855Z,94405.11
2019-01-11T16:32:27.306Z,94411.40
2019-01-11T16:34:54.728Z,94404.19
2019-01-11T16:37:22.208Z,94403.46
2019-01-11T16:39:49.743Z,94406.91
2019-01-11T16:42:17.206Z,94401.53
2019-01-11T16:44:44.606Z,94397.67
2019-01-11T16:47:12.059Z,94399.52
2019-01-11T16:49:39.469Z,94407.17
2019-01-11T16:52:07.090Z,94403.69
2019-01-11T16:54:34.498Z,94406.95
2019-01-11T16:57:01.892Z,94406.53
2019-01-11T16:59:29.308Z,94400.89
2019-01-11T17:01:56.683Z,94400.66
2019-01-11T17:04:24.428Z,94399.55
2019-01-11T17:06:51.886Z,94398.09
2019-01-11T17:09:19.420Z,94407.68
2019-01-11T17:11:46.922Z,94404.27
2019-01-11T17:14:14.298Z,94408.13
2019-01-11T17:16:41.744Z,94410.53
2019-01-11T17:19:09.218Z,94408.50
2019-01-11T17:21:36.681Z,94414.14
2019-01-11T17:24:04.475Z,94410.11
2019-01-11T17:26:31.855Z,94407.13
2019-01-11T17:28:59.237Z,94408.69
2019-01-11T17:31:26.667Z,94414.66
2019-01-11T17:33:54.130Z,94414.33
2019-01-11T17:36:21.495Z,94418.05
2019-01-11T17:38:48.902Z,94418.47
2019-01-11T17:41:16.320Z,94417.13
2019-01-11T17:43:43.806Z,94414.92
2019-01-11T17:46:11.187Z,94419.48
2019-01-11T17:48:39.141Z,94417.05
2019-01-11T17:51:06.773Z,94420.40
2019-01-11T17:53:34.186Z,94425.77
2019-01-11T17:56:01.647Z,94426.37
2019-01-11T17:58:29.146Z,94432.48
2019-01-11T18:00:56.614Z,94430.69
2019-01-11T18:03:25.358Z,94431.83
2019-01-11T18:05:52.900Z,94429.98
2019-01-11T18:08:20.405Z,94429.40
2019-01-11T18:10:49.038Z,94438.81
2019-01-11T18:13:16.423Z,94439.41
2019-01-11T18:15:43.919Z,94437.53
2019-01-11T18:18:11.386Z,94444.50
2019-01-11T18:20:38.987Z,94446.25
2019-01-11T18:23:07.078Z,94446.16
2019-01-11T18:25:34.847Z,94443.63
2019-01-11T18:28:02.295Z,94432.98
2019-01-11T18:30:29.707Z,94437.20
2019-01-11T18:32:57.087Z,94435.96
2019-01-11T18:35:24.487Z,94425.45
2019-01-11T18:37:51.837Z,94436.16
2019-01-11T18:40:23.206Z,94431.23
2019-01-11T18:42:50.684Z,94428.34
2019-01-11T18:45:18.185Z,94422.88
2019-01-11T18:47:45.585Z,94421.45
2019-01-11T18:50:14.521Z,94428.03
2019-01-11T18:52:42.014Z,94424.25
2019-01-11T18:55:09.399Z,94424.25
2019-01-11T18:57:36.759Z,94421.97
2019-01-11T19:00:05.682Z,94430.09
2019-01-11T19:02:33.152Z,94431.02
2019-01-11T19:05:00.663Z,94433.48
2019-01-11T19:07:28.142Z,94430.31
2019-01-11T19:09:55.510Z,94429.39
2019-01-11T19:12:22.930Z,94430.68
2019-01-11T19:14:50.388Z,94432.34
2019-01-11T19:17:17.779Z,94426.19
2019-01-11T19:19:45.210Z,94424.84
2019-01-11T19:22:12.615Z,94424.03
2019-01-11T19:24:40.004Z,94428.95
2019-01-11T19:27:07.421Z,94430.09
2019-01-11T19:29:34.898Z,94422.06
2019-01-11T19:32:02.322Z,94421.64
2019-01-11T19:34:29.827Z,94433.17
2019-01-11T19:36:57.326Z,94427.52
2019-01-11T19:39:24.748Z,94430.45
2019-01-11T19:41:52.358Z,94427.52
2019-01-11T19:44:19.897Z,94426.19
2019-01-11T19:46:47.431Z,94427.52
2019-01-11T19:49:14.827Z,94424.53
2019-01-11T19:51:42.263Z,94434.14
2019-01-11T19:54:09.750Z,94426.38
2019-01-11T19:56:37.238Z,94430.23
2019-01-11T19:59:04.674Z,94423.11
2019-01-11T20:01:32.181Z,94431.19
2019-01-11T20:03:59.703Z,94423.16
2019-01-11T20:06:27.107Z,94427.11
2019-01-11T20:08:54.546Z,94427.11
2019-01-11T20:11:22.014Z,94429.08
2019-01-11T20:13:49.532Z,94436.56
2019-01-11T20:16:16.931Z,94428.53
2019-01-11T20:18:44.344Z,94433.48
2019-01-11T20:21:11.832Z,94437.25
2019-01-11T20:23:39.324Z,94435.55
2019-01-11T20:26:06.698Z,94436.97
2019-01-11T20:28:34.082Z,94432.98
2019-01-11T20:31:01.540Z,94440.28
2019-01-11T20:33:28.991Z,94443.96
2019-01-11T20:35:56.490Z,94442.12
2019-01-11T20:38:23.863Z,94443.27
2019-01-11T20:40:51.265Z,94439.96
2019-01-11T20:43:18.720Z,94440.05
2019-01-11T20:45:46.141Z,94444.37
2019-01-11T20:48:13.699Z,94454.34
2019-01-11T20:50:41.114Z,94450.30
2019-01-11T20:53:08.639Z,94448.19
2019-01-11T20:55:36.123Z,94448.69
2019-01-11T20:58:03.686Z,94450.34
2019-01-11T21:00:32.386Z,94452.50
2019-01-11T21:02:59.820Z,94449.97
2019-01-11T21:05:27.355Z,94455.53
2019-01-11T21:07:54.773Z,94450.75
2019-01-11T21:10:22.327Z,94454.05
2019-01-11T21:12:49.747Z,94463.61
2019-01-11T21:15:17.334Z,94455.20
2019-01-11T21:17:44.699Z,94460.34
2019-01-11T21:20:13.127Z,94454.05
2019-01-11T21:22:40.500Z,94453.78
2019-01-11T21:25:08.919Z,94454.56
2019-01-11T21:27:36.994Z,94452.91
2019-01-11T21:30:06.043Z,94452.91
2019-01-11T21:32:33.450Z,94449.64
2019-01-11T21:35:00.970Z,94447.26
2019-01-11T21:37:28.514Z,94448.27
2019-01-11T21:39:55.987Z,94453.59
2019-01-11T21:42:23.408Z,94453.96
2019-01-11T21:44:50.875Z,94458.46
2019-01-11T21:47:18.277Z,94454.34
2019-01-11T21:49:45.666Z,94450.56
2019-01-11T21:52:13.055Z,94447.26
2019-01-11T21:54:40.447Z,94453.41
2019-01-11T21:57:07.822Z,94457.27
2019-01-11T21:59:35.263Z,94452.55
2019-01-11T22:02:02.721Z,94452.49
2019-01-11T22:04:30.179Z,94454.97
2019-01-11T22:06:57.559Z,94452.58
2019-01-11T22:09:24.978Z,94451.20
2019-01-11T22:11:52.352Z,94451.77
2019-01-11T22:14:19.780Z,94455.20
2019-01-11T22:16:47.272Z,94460.02
2019-01-11T22:19:14.704Z,94462.00
2019-01-11T22:21:42.173Z,94458.45
2019-01-11T22:24:09.574Z,94457.16
2019-01-11T22:26:36.981Z,94455.65
2019-01-11T22:29:04.395Z,94460.10
2019-01-11T22:31:31.852Z,94466.77
2019-01-11T22:33:59.274Z,94459.31
2019-01-11T22:36:26.639Z,94466.67
2019-01-11T22:38:54.045Z,94463.67
2019-01-11T22:41:24.588Z,94465.94
2019-01-11T22:43:52.004Z,94471.59
2019-01-11T22:46:19.471Z,94462.75
2019-01-11T22:48:46.945Z,94472.12
2019-01-11T22:51:14.310Z,94463.84
2019-01-11T22:53:41.710Z,94460.45
2019-01-11T22:56:09.102Z,94466.19
2019-01-11T22:58:36.463Z,94459.95
2019-01-11T23:01:38.751Z,94461.38
2019-01-11T23:04:06.113Z,94465.30
2019-01-11T23:06:43.095Z,94473.55
2019-01-11T23:09:11.618Z,94474.33
2019-01-11T23:12:04.592Z,94470.47
2019-01-11T23:14:31.971Z,94472.63
2019-01-11T23:17:08.418Z,94468.17
2019-01-11T23:19:35.831Z,94466.09
2019-01-11T23:22:03.198Z,94468.17
2019-01-11T23:24:30.613Z,94470.97
2019-01-11T23:26:58.009Z,94475.89
2019-01-11T23:29:25.375Z,94478.47
2019-01-11T23:31:52.874Z,94478.47
2019-01-11T23:34:20.220Z,94482.83
2019-01-11T23:36:47.990Z,94476.92
2019-01-11T23:39:15.360Z,94482.36
2019-01-11T23:41:42.726Z,94486.48
2019-01-11T23:44:10.097Z,94476.39
2019-01-11T23:46:37.480Z,94483.36
2019-01-11T23:49:04.877Z,94484.64
2019-01-11T23:51:32.246Z,94484.41
2019-01-11T23:53:59.740Z,94487.48
2019-01-11T23:56:27.142Z,94482.20
2019-01-11T23:58:54.503Z,94493.00
